ADDS METAR Data INFO
IDs: Format: Raw Decoded Include TAF

Data at: 0158 UTC 19 Jul 2018

KJAS 190135Z AUTO 00000KT 10SM CLR 30/26 A2996 RMK AO2 T02980258
KJAS 190115Z AUTO 00000KT 10SM CLR 31/25 A2996 RMK AO2 T03100253
KJAS 190055Z AUTO 15003KT 10SM CLR 32/25 A2995 RMK AO2 T03160254
KJAS 190035Z AUTO 00000KT 10SM CLR 32/26 A2995 RMK AO2 T03220256
KJAS 190015Z AUTO 00000KT 10SM CLR 33/25 A2995 RMK AO2 T03260253
KJAS 182355Z AUTO 22003KT 10SM CLR 33/24 A2995 RMK AO2 T03300242
KJAS 182335Z AUTO 21003KT 10SM CLR 33/24 A2994 RMK AO2 T03340241
KJAS 182315Z AUTO 23003KT 10SM CLR 34/24 A2994 RMK AO2 T03370239
KJAS 182255Z AUTO 22004KT 10SM CLR 34/23 A2994 RMK AO2 T03390230
KJAS 182235Z AUTO 23003KT 10SM CLR 34/23 A2994 RMK AO2 T03410231
KJAS 182215Z AUTO 19004KT 10SM CLR 34/23 A2995 RMK AO2 T03400228
KJAS 182155Z AUTO 00000KT 10SM CLR 34/23 A2996 RMK AO2 T03370230
KJAS 182135Z AUTO 00000KT 10SM CLR 34/24 A2996 RMK AO2 T03370236
KJAS 182115Z AUTO 00000KT 10SM CLR 34/24 A2997 RMK AO2 T03360239
KJAS 182055Z AUTO 19004KT 10SM CLR 33/24 A2998 RMK AO2 T03340239
KJAS 182035Z AUTO 00000KT 10SM SCT038 SCT100 34/24 A2999 RMK AO2 T03350239
KJAS 182015Z AUTO 17003KT 10SM SCT038 SCT100 33/24 A2999 RMK AO2 T03330244
KJAS 181955Z AUTO 19004KT 10SM SCT110 33/24 A3000 RMK AO2 T03340242
KJAS 181935Z AUTO 18003KT 10SM SCT120 33/24 A3000 RMK AO2 T03290243
KJAS 181915Z AUTO 00000KT 10SM SCT032 33/24 A3001 RMK AO2 T03280244
KJAS 181855Z AUTO 23004KT 10SM SCT032 33/24 A3002 RMK AO2 T03270242
KJAS 181835Z AUTO 21004KT 10SM CLR 32/24 A3002 RMK AO2 T03230243
KJAS 181815Z AUTO 00000KT 10SM CLR 32/24 A3003 RMK AO2 T03240242
KJAS 181755Z AUTO 22005KT 10SM CLR 32/24 A3003 RMK AO2 T03180240
KJAS 181735Z AUTO 22005KT 10SM CLR 32/24 A3003 RMK AO2 T03160238
KJAS 181715Z AUTO 20005KT CLR 31/24 A3003 RMK AO2 T03130240
KJAS 181655Z AUTO 20005KT 10SM CLR 31/24 A3003 RMK AO2 T03120240
KJAS 181635Z AUTO 20006KT 10SM CLR 31/24 A3004 RMK AO2 T03050244
KJAS 181615Z AUTO 20006KT 10SM CLR 30/24 A3004 RMK AO2 T03010244
KJAS 181555Z AUTO 23005KT 10SM SCT019 SCT100 30/25 A3004 RMK AO2 T02990246
KJAS 181535Z AUTO 24006KT 10SM SCT019 BKN100 30/25 A3005 RMK AO2 T02960245
KJAS 181515Z AUTO 25007KT 10SM SCT100 29/24 A3005 RMK AO2 T02930244
KJAS 181455Z AUTO 23004KT 10SM CLR 29/25 A3005 RMK AO2 T02910247
KJAS 181435Z AUTO 24006KT 10SM SCT013 28/25 A3004 RMK AO2 T02820246
KJAS 181415Z AUTO 24006KT 10SM SCT013 28/25 A3005 RMK AO2 T02800250 PWINO
KJAS 181355Z AUTO 22005KT 10SM BKN011 27/25 A3005 RMK AO2 T02730250
KJAS 181335Z AUTO 25006KT 10SM OVC009 27/25 A3006 RMK AO2 T02670250
KJAS 181315Z AUTO 24006KT 10SM OVC011 26/25 A3005 RMK AO2 T02600250
KJAS 181250Z AUTO 00000KT 10SM CLR 25/24 A3005 RMK AO2 T02510243
KJAS 181235Z AUTO 21003KT 10SM SCT011 24/24 A3004 RMK AO2 T02440238
KJAS 181215Z AUTO 00000KT 10SM SCT011 24/23 A3004 RMK AO2 T02360231
KJAS 181155Z AUTO 00000KT 7SM CLR 24/23 A3004 RMK AO2 T02380233
KJAS 181135Z AUTO 00000KT 10SM CLR 24/24 A3003 RMK AO2 T02420236
KJAS 181115Z AUTO 19004KT 10SM CLR 25/24 A3003 RMK AO2 T02460239
KJAS 181055Z AUTO 00000KT 10SM CLR 25/24 A3003 RMK AO2 T02490241
KJAS 181035Z AUTO 00000KT 10SM CLR 25/24 A3003 RMK AO2 T02500241
KJAS 181015Z AUTO 00000KT 10SM CLR 25/24 A3003 RMK AO2 T02500242
KJAS 180955Z AUTO 00000KT 10SM CLR 25/24 A3002 RMK AO2 T02510242
KJAS 180935Z AUTO 21003KT 10SM CLR 25/24 A3002 RMK AO2 T02540243
KJAS 180915Z AUTO 00000KT 10SM CLR 26/25 A3002 RMK AO2 T02550245
KJAS 180855Z AUTO 00000KT 10SM CLR 25/25 A3001 RMK AO2 T02540245
KJAS 180835Z AUTO 20004KT 10SM CLR 25/25 A3001 RMK AO2 T02540245
KJAS 180815Z AUTO 00000KT 10SM CLR 26/25 A3001 RMK AO2 T02560246
KJAS 180755Z AUTO 20003KT 10SM CLR 26/25 A3001 RMK AO2 T02570248
KJAS 180735Z AUTO 21003KT 10SM CLR 26/25 A3001 RMK AO2 T02580249
KJAS 180715Z AUTO 21003KT 10SM CLR 26/25 A3001 RMK AO2 T02590250
KJAS 180655Z AUTO 00000KT 10SM CLR 26/25 A3001 RMK AO2 T02600250
KJAS 180635Z AUTO 20003KT 10SM CLR 26/25 A3001 RMK AO2 T02620250
KJAS 180615Z AUTO 20003KT 10SM CLR 26/25 A3002 RMK AO2 T02640251
KJAS 180550Z AUTO 00000KT 10SM CLR 27/25 A3002 RMK AO2 T02660251
KJAS 180535Z AUTO 21003KT 10SM CLR 27/25 A3003 RMK AO2 T02680252
KJAS 180515Z AUTO 21003KT 10SM CLR 27/25 A3003 RMK AO2 T02700252
KJAS 180455Z AUTO 20003KT 10SM CLR 27/25 A3003 RMK AO2 T02710253
KJAS 180435Z AUTO 21004KT 10SM CLR 27/25 A3003 RMK AO2 T02740252
KJAS 180415Z AUTO 21004KT 10SM CLR 28/25 A3003 RMK AO2 T02750251
KJAS 180355Z AUTO 21004KT 10SM CLR 28/25 A3004 RMK AO2 T02750250
KJAS 180335Z AUTO 00000KT 10SM CLR 28/25 A3004 RMK AO2 T02760249
KJAS 180315Z AUTO 00000KT 10SM CLR 27/25 A3003 RMK AO2 T02740250
KJAS 180255Z AUTO 00000KT 10SM CLR 27/25 A3003 RMK AO2 T02720251
KJAS 180235Z AUTO 00000KT 10SM CLR 28/25 A3002 RMK AO2 T02760248
KJAS 180215Z AUTO 00000KT 10SM CLR 28/25 A3002 RMK AO2 T02790247
KJAS 180155Z AUTO 00000KT 10SM CLR 28/25 A3002 RMK AO2 T02840249
KJAS 180135Z AUTO 00000KT 10SM CLR 29/25 A3001 RMK AO2 T02910248
KJAS 180115Z AUTO 00000KT 10SM CLR 30/25 A3001 RMK AO2 T02960251
KJAS 180055Z AUTO 00000KT 10SM CLR 31/25 A3002 RMK AO2 T03070253
KJAS 180035Z AUTO 00000KT 10SM CLR 32/25 A3002 RMK AO2 T03150248
KJAS 180015Z AUTO 00000KT 10SM CLR 32/25 A3001 RMK AO2 T03230245
KJAS 172355Z AUTO 20004KT 10SM CLR 33/24 A3001 RMK AO2 T03320237
KJAS 172335Z AUTO 20004KT 10SM CLR 34/23 A3001 RMK AO2 T03350233
KJAS 172315Z AUTO 21004KT 10SM CLR 34/23 A3002 RMK AO2 T03370231
KJAS 172255Z AUTO 22003KT 10SM CLR 34/22 A3002 RMK AO2 T03390222
KJAS 172235Z AUTO 22004KT 10SM CLR 34/22 A3002 RMK AO2 T03400224
KJAS 172215Z AUTO 20003KT 10SM CLR 34/22 A3002 RMK AO2 T03400218
KJAS 172155Z AUTO 21004KT 10SM CLR 34/21 A3002 RMK AO2 T03400209
KJAS 172135Z AUTO 20005KT 10SM CLR 34/22 A3002 RMK AO2 T03400216
KJAS 172115Z AUTO 23005KT 10SM CLR 34/22 A3003 RMK AO2 T03400223
KJAS 172055Z AUTO 21003KT 10SM CLR 34/22 A3004 RMK AO2 T03400222
KJAS 172035Z AUTO 21003KT 10SM CLR 34/22 A3004 RMK AO2 T03370219
KJAS 172015Z AUTO 00000KT 10SM CLR 34/22 A3005 RMK AO2 T03370223
KJAS 171955Z AUTO 22005KT 10SM CLR 34/22 A3006 RMK AO2 T03360218
KJAS 171935Z AUTO 00000KT 10SM CLR 34/22 A3007 RMK AO2 T03350219
KJAS 171915Z AUTO 24006KT 10SM CLR 34/22 A3007 RMK AO2 T03350220
KJAS 171855Z AUTO 26005KT 10SM CLR 33/22 A3008 RMK AO2 T03320219
KJAS 171835Z AUTO 24006KT 10SM CLR 33/23 A3008 RMK AO2 T03280226
KJAS 171815Z AUTO 25005KT 10SM CLR 33/23 A3009 RMK AO2 T03250227
KJAS 171755Z AUTO 23005KT 10SM CLR 32/23 A3009 RMK AO2 T03220233
KJAS 171735Z AUTO 24006KT 10SM CLR 32/23 A3009 RMK AO2 T03180231
KJAS 171715Z AUTO 22005KT 10SM CLR 31/24 A3009 RMK AO2 T03130235
KJAS 171655Z AUTO 24008KT 10SM CLR 31/23 A3010 RMK AO2 T03110233
KJAS 171635Z AUTO 23005KT 10SM CLR 31/23 A3010 RMK AO2 T03080234
KJAS 171610Z AUTO 25005KT 10SM CLR 30/24 A3010 RMK AO2 T03020236
KJAS 171555Z AUTO 25005KT CLR 30/23 A3011 RMK AO2 T03000233 PWINO
KJAS 171535Z AUTO 26007KT 10SM CLR 30/23 A3011 RMK AO2 T02960231
KJAS 171515Z AUTO 24008KT 10SM CLR 29/24 A3011 RMK AO2 T02920237
KJAS 171455Z AUTO 25008KT 10SM CLR 29/24 A3011 RMK AO2 T02880244
KJAS 171435Z AUTO 23004KT 10SM SCT013 28/25 A3011 RMK AO2 T02800246
KJAS 171415Z AUTO 23004KT 10SM SCT013 27/24 A3011 RMK AO2 T02740244